Time;durP1;ratioP1;P1;durP2;ratioP2;P2;SDS_P1;SDS_P2;PMS_P1;PMS_P2;Temp;Humidity;BMP_temperature;BMP_pressure;BME280_temperature;BME280_humidity;BME280_pressure;Samples;Min_cycle;Max_cycle;Signal;HPM_P1;HPM_P2
2022/11/29 00:00:29;;;;;;;54.13;34.22;;;;;;;3.29;100.00;101536.22;5010872;28;20183;-51
2022/11/29 00:02:55;;;;;;;52.85;33.90;;;;;;;3.32;100.00;101526.53;5010617;28;20190;-48
2022/11/29 00:05:20;;;;;;;56.97;35.75;;;;;;;3.29;100.00;101524.75;5014846;28;20628;-50
2022/11/29 00:07:45;;;;;;;54.90;35.13;;;;;;;3.28;100.00;101534.47;5017311;28;20223;-48
2022/11/29 00:10:11;;;;;;;55.80;35.95;;;;;;;3.26;100.00;101536.22;5016029;28;20184;-49
2022/11/29 00:12:37;;;;;;;55.65;36.60;;;;;;;3.26;100.00;101530.94;5016461;28;20643;-50
2022/11/29 00:15:02;;;;;;;53.53;36.53;;;;;;;3.27;100.00;101529.16;5018647;28;20187;-49
2022/11/29 00:17:28;;;;;;;54.80;35.53;;;;;;;3.27;100.00;101537.97;5015096;28;20255;-50
2022/11/29 00:19:53;;;;;;;55.28;36.35;;;;;;;3.29;100.00;101543.28;5012418;28;20211;-50
2022/11/29 00:22:19;;;;;;;55.67;36.25;;;;;;;3.30;100.00;101540.66;5020705;28;20267;-50
2022/11/29 00:24:44;;;;;;;55.90;34.85;;;;;;;3.27;100.00;101543.28;5018671;28;20183;-47
2022/11/29 00:27:10;;;;;;;51.75;33.53;;;;;;;3.37;100.00;101545.94;5022667;28;20175;-44
2022/11/29 00:29:36;;;;;;;58.00;34.88;;;;;;;3.37;100.00;101548.59;5014241;28;20781;-49
2022/11/29 00:32:01;;;;;;;54.80;35.40;;;;;;;3.33;100.00;101541.56;5013021;28;20181;-45
2022/11/29 00:34:27;;;;;;;54.95;34.60;;;;;;;3.29;100.00;101544.16;5012981;28;20185;-46
2022/11/29 00:36:53;;;;;;;54.85;34.85;;;;;;;3.30;100.00;101545.03;5012782;28;20176;-45
2022/11/29 00:39:18;;;;;;;55.92;35.38;;;;;;;3.29;100.00;101538.00;5020777;28;20662;-47
2022/11/29 00:41:44;;;;;;;52.25;34.88;;;;;;;3.29;100.00;101538.88;5017877;28;20189;-51
2022/11/29 00:44:10;;;;;;;51.67;35.28;;;;;;;3.27;100.00;101539.75;5013057;28;20216;-46
2022/11/29 00:46:35;;;;;;;52.63;33.60;;;;;;;3.33;100.00;101539.78;5015070;28;20196;-46
2022/11/29 00:49:01;;;;;;;52.53;34.90;;;;;;;3.32;100.00;101540.63;5031118;28;20250;-45
2022/11/29 00:51:27;;;;;;;55.33;34.88;;;;;;;3.33;100.00;101544.19;5012844;28;20176;-48
2022/11/29 00:53:52;;;;;;;49.22;34.75;;;;;;;3.33;100.00;101553.03;5023499;28;20658;-45
2022/11/29 00:56:18;;;;;;;58.72;36.53;;;;;;;3.27;100.00;101542.41;5012894;28;20196;-43
2022/11/29 00:58:43;;;;;;;53.97;35.60;;;;;;;3.25;100.00;101544.16;5019488;28;20265;-45
2022/11/29 01:01:10;;;;;;;57.15;36.10;;;;;;;3.23;100.00;101546.78;5012596;28;20181;-47
2022/11/29 01:03:36;;;;;;;53.78;34.70;;;;;;;3.25;100.00;101552.09;5016392;28;20259;-44
2022/11/29 01:06:13;;;;;;;54.53;35.00;;;;;;;3.28;100.00;101549.47;5021790;28;20191;-45
2022/11/29 01:08:39;;;;;;;52.53;34.88;;;;;;;3.27;100.00;101545.94;5011030;28;20205;-48
2022/11/29 01:11:05;;;;;;;55.83;34.67;;;;;;;3.27;100.00;101550.34;5013895;28;20211;-43
2022/11/29 01:13:32;;;;;;;49.30;32.63;;;;;;;3.26;100.00;101552.13;5011096;28;20180;-44
2022/11/29 01:15:57;;;;;;;57.55;36.03;;;;;;;3.22;100.00;101560.94;5012497;28;20177;-45
2022/11/29 01:18:24;;;;;;;53.88;34.38;;;;;;;3.22;100.00;101549.47;5012027;28;20220;-45
2022/11/29 01:21:21;;;;;;;54.72;35.10;;;;;;;3.23;100.00;101562.69;5011128;28;20202;-48
2022/11/29 01:23:48;;;;;;;53.63;33.90;;;;;;;3.23;100.00;101554.72;5009961;28;20335;-44
2022/11/29 01:26:16;;;;;;;56.55;35.25;;;;;;;3.22;100.00;101566.22;5022955;28;20176;-45
2022/11/29 01:28:47;;;;;;;51.35;34.55;;;;;;;3.26;100.00;101557.41;5012226;28;20477;-43
2022/11/29 01:31:36;;;;;;;50.75;34.65;;;;;;;3.21;100.00;101572.38;5022501;28;20210;-44
2022/11/29 01:34:04;;;;;;;52.53;33.58;;;;;;;3.28;100.00;101555.66;5020772;28;20188;-44
2022/11/29 01:36:32;;;;;;;55.15;34.70;;;;;;;3.24;100.00;101543.28;5017329;28;20187;-45
2022/11/29 01:38:59;;;;;;;51.20;34.80;;;;;;;3.21;100.00;101551.19;5030950;28;20216;-42
2022/11/29 01:41:27;;;;;;;53.22;35.65;;;;;;;3.20;100.00;101549.44;4992642;28;20166;-46
2022/11/29 01:44:27;;;;;;;53.25;34.97;;;;;;;3.17;100.00;101544.16;5009948;28;20168;-44
2022/11/29 01:46:53;;;;;;;53.17;34.50;;;;;;;3.20;100.00;101557.38;5007946;28;20656;-47
2022/11/29 01:49:28;;;;;;;57.78;34.47;;;;;;;3.19;100.00;101546.78;5019073;28;20192;-44
2022/11/29 01:52:02;;;;;;;54.22;35.30;;;;;;;3.16;100.00;101549.44;5011866;28;20189;-44
2022/11/29 01:54:30;;;;;;;61.00;35.22;;;;;;;3.17;100.00;101549.44;5014329;28;20188;-46
2022/11/29 01:56:58;;;;;;;53.55;35.20;;;;;;;3.12;100.00;101553.81;5011120;28;20198;-43
2022/11/29 01:59:27;;;;;;;59.80;36.13;;;;;;;3.14;100.00;101548.53;5011592;28;20205;-47
2022/11/29 02:01:59;;;;;;;53.50;34.70;;;;;;;3.16;100.00;101546.78;5015634;28;20203;-41
2022/11/29 02:04:25;;;;;;;55.17;34.00;;;;;;;3.15;100.00;101548.56;5028108;28;20237;-40
2022/11/29 02:06:50;;;;;;;55.75;35.15;;;;;;;3.10;100.00;101558.22;5011392;28;20180;-42
2022/11/29 02:09:20;;;;;;;57.63;36.63;;;;;;;3.05;100.00;101549.38;5019419;28;20214;-43
2022/11/29 02:11:52;;;;;;;52.75;34.92;;;;;;;3.08;100.00;101546.72;5016653;28;20195;-43
2022/11/29 02:14:45;;;;;;;57.38;36.75;;;;;;;3.05;100.00;101552.91;5017778;28;20176;-41
2022/11/29 02:17:33;;;;;;;55.47;34.83;;;;;;;3.09;100.00;101557.34;5024041;28;20191;-42
2022/11/29 02:20:18;;;;;;;57.17;35.33;;;;;;;3.07;100.00;101551.16;5013944;28;20180;-44
2022/11/29 02:22:59;;;;;;;58.83;36.60;;;;;;;3.03;100.00;101564.38;5015869;28;20211;-46
2022/11/29 02:25:40;;;;;;;57.35;35.42;;;;;;;3.03;100.00;101567.03;5013699;28;20176;-43
2022/11/29 02:28:29;;;;;;;57.95;36.55;;;;;;;3.06;100.00;101556.44;5025411;28;20343;-43
2022/11/29 02:31:17;;;;;;;58.40;36.28;;;;;;;3.01;100.00;101567.00;5016427;28;20264;-41
2022/11/29 02:33:45;;;;;;;55.13;35.70;;;;;;;3.03;100.00;101564.38;5010594;28;20204;-44
2022/11/29 02:36:14;;;;;;;53.10;35.70;;;;;;;3.01;100.00;101558.19;5009643;28;20184;-43
2022/11/29 02:39:23;;;;;;;58.10;35.90;;;;;;;3.02;100.00;101563.50;5014097;28;20211;-43
2022/11/29 02:42:02;;;;;;;58.92;37.40;;;;;;;3.02;100.00;101562.63;5010362;28;20266;-44
2022/11/29 02:44:46;;;;;;;56.63;35.03;;;;;;;3.04;100.00;101563.47;5016869;28;20195;-42
2022/11/29 02:47:19;;;;;;;61.17;38.28;;;;;;;3.00;100.00;101562.59;5023045;28;20190;-43
2022/11/29 02:49:56;;;;;;;58.65;36.53;;;;;;;3.08;100.00;101565.25;5020055;28;20250;-43
2022/11/29 02:52:36;;;;;;;53.35;35.92;;;;;;;3.06;100.00;101559.06;5013516;28;20164;-43
2022/11/29 02:55:41;;;;;;;54.63;35.80;;;;;;;3.04;100.00;101566.13;5007967;28;20673;-42
2022/11/29 02:58:25;;;;;;;61.05;37.15;;;;;;;3.03;100.00;101570.53;5008432;28;20227;-46
2022/11/29 03:01:01;;;;;;;59.90;37.85;;;;;;;3.04;100.00;101563.47;5014121;28;20180;-43
2022/11/29 03:03:38;;;;;;;61.13;38.33;;;;;;;3.06;100.00;101562.63;5010074;28;20551;-44
2022/11/29 03:06:27;;;;;;;56.53;36.20;;;;;;;3.08;100.00;101573.22;5009863;28;20192;-44
2022/11/29 03:09:15;;;;;;;60.60;37.25;;;;;;;3.05;100.00;101582.03;5008424;28;20191;-43
2022/11/29 03:11:51;;;;;;;63.47;39.50;;;;;;;3.04;100.00;101576.72;5016419;28;20196;-41
2022/11/29 03:14:38;;;;;;;58.70;38.70;;;;;;;3.03;100.00;101586.44;5013917;28;20686;-42
2022/11/29 03:17:47;;;;;;;59.47;36.53;;;;;;;3.02;100.00;101587.31;5017371;28;20207;-44
2022/11/29 03:20:27;;;;;;;59.28;37.13;;;;;;;3.06;100.00;101596.13;5007037;28;20176;-43
2022/11/29 03:23:20;;;;;;;61.80;38.03;;;;;;;3.05;100.00;101592.63;5013409;28;20206;-47
2022/11/29 03:26:01;;;;;;;58.53;37.25;;;;;;;3.00;100.00;101590.84;5018944;28;20176;-43
2022/11/29 03:28:26;;;;;;;61.85;38.63;;;;;;;3.03;100.00;101585.56;5011172;28;20697;-40
2022/11/29 03:31:09;;;;;;;61.42;39.28;;;;;;;3.02;100.00;101589.97;5013421;28;20692;-42
2022/11/29 03:33:40;;;;;;;59.60;38.22;;;;;;;3.02;100.00;101597.03;5008924;28;20215;-41
2022/11/29 03:36:17;;;;;;;57.50;38.10;;;;;;;3.03;100.00;101597.00;5013377;28;20184;-40
2022/11/29 03:38:47;;;;;;;59.63;38.28;;;;;;;3.04;100.00;101603.19;5010516;28;20236;-45
2022/11/29 03:41:12;;;;;;;60.78;37.85;;;;;;;3.01;100.00;101601.41;5009022;28;20181;-47
2022/11/29 03:43:49;;;;;;;61.78;39.30;;;;;;;2.99;100.00;101605.81;5009566;28;20230;-47
2022/11/29 03:46:29;;;;;;;53.53;35.95;;;;;;;3.04;100.00;101597.91;5010535;28;20651;-46
2022/11/29 03:49:22;;;;;;;59.15;39.30;;;;;;;3.02;100.00;101610.28;5012155;28;20216;-49
2022/11/29 03:52:11;;;;;;;57.72;38.72;;;;;;;3.01;100.00;101603.19;5013494;28;20195;-47
2022/11/29 03:54:49;;;;;;;56.00;37.78;;;;;;;2.99;100.00;101595.22;5012195;28;20624;-48
2022/11/29 03:57:25;;;;;;;55.67;37.63;;;;;;;3.04;100.00;101598.81;5015521;28;20230;-47
2022/11/29 04:00:09;;;;;;;62.25;39.40;;;;;;;2.99;100.00;101599.63;5013529;28;20227;-47
2022/11/29 04:02:49;;;;;;;56.72;37.28;;;;;;;3.00;100.00;101606.72;5021837;28;20193;-47
2022/11/29 04:05:17;;;;;;;58.88;38.00;;;;;;;3.00;100.00;101607.59;5014213;28;20180;-47
2022/11/29 04:08:01;;;;;;;55.90;38.08;;;;;;;3.01;100.00;101619.06;5019240;28;20611;-48
2022/11/29 04:10:51;;;;;;;61.50;39.67;;;;;;;3.00;100.00;101609.38;5017210;28;20207;-48
2022/11/29 04:13:29;;;;;;;57.45;38.95;;;;;;;3.00;100.00;101623.47;5012837;28;20180;-47
2022/11/29 04:16:01;;;;;;;55.83;38.58;;;;;;;3.02;100.00;101611.16;5018408;28;20196;-48
2022/11/29 04:18:45;;;;;;;59.47;39.90;;;;;;;3.00;100.00;101622.59;5014791;28;20196;-47
2022/11/29 04:21:41;;;;;;;57.08;39.17;;;;;;;2.98;100.00;101614.66;5016045;28;20188;-48
2022/11/29 04:24:19;;;;;;;57.75;39.28;;;;;;;2.96;100.00;101627.00;5019325;28;20168;-47
2022/11/29 04:27:09;;;;;;;58.70;38.25;;;;;;;2.98;100.00;101640.25;5030765;28;20670;-47
2022/11/29 04:29:49;;;;;;;60.53;39.72;;;;;;;3.00;100.00;101631.44;5022816;28;20216;-47
2022/11/29 04:32:38;;;;;;;61.42;40.03;;;;;;;2.97;100.00;101634.03;5012534;28;20338;-49
2022/11/29 04:35:12;;;;;;;58.08;39.30;;;;;;;3.03;100.00;101630.56;5021674;28;20210;-48
2022/11/29 04:38:09;;;;;;;57.92;38.63;;;;;;;3.03;100.00;101633.19;5016139;28;20211;-48
2022/11/29 04:40:35;;;;;;;61.63;39.80;;;;;;;3.00;100.00;101638.50;5017983;28;20301;-49
2022/11/29 04:43:21;;;;;;;59.35;39.17;;;;;;;2.99;100.00;101637.59;5020545;28;20208;-48
2022/11/29 04:46:12;;;;;;;57.58;39.10;;;;;;;3.00;100.00;101641.13;5012244;28;20228;-48
2022/11/29 04:49:15;;;;;;;54.13;37.05;;;;;;;3.02;100.00;101649.97;5014414;28;20216;-48
2022/11/29 04:52:05;;;;;;;58.22;39.17;;;;;;;3.01;100.00;101651.72;5016718;28;20226;-49
2022/11/29 04:54:38;;;;;;;53.22;36.90;;;;;;;3.00;100.00;101654.38;5015772;28;20180;-47
2022/11/29 04:57:21;;;;;;;54.75;39.08;;;;;;;3.05;100.00;101648.22;5014715;28;20195;-49
2022/11/29 04:59:55;;;;;;;59.67;40.30;;;;;;;2.99;100.00;101655.22;5010805;28;20539;-48
2022/11/29 05:02:47;;;;;;;59.63;40.60;;;;;;;3.00;100.00;101662.31;5015651;28;21120;-48
2022/11/29 05:05:50;;;;;;;58.60;39.72;;;;;;;2.99;100.00;101664.06;5015073;28;20627;-47
2022/11/29 05:08:25;;;;;;;58.25;39.33;;;;;;;2.99;100.00;101669.34;5018470;28;20824;-47
2022/11/29 05:10:50;;;;;;;54.08;38.35;;;;;;;2.98;100.00;101674.66;5016840;28;20939;-48
2022/11/29 05:13:19;;;;;;;54.13;38.85;;;;;;;2.98;100.00;101664.94;5012405;28;20180;-48
2022/11/29 05:16:13;;;;;;;59.22;39.53;;;;;;;3.01;100.00;101674.66;5009548;28;20642;-47
2022/11/29 05:18:47;;;;;;;59.05;40.42;;;;;;;3.04;100.00;101670.28;5014620;28;20226;-47
2022/11/29 05:21:24;;;;;;;55.55;39.65;;;;;;;3.03;100.00;101676.44;5019123;28;20211;-48
2022/11/29 05:24:10;;;;;;;58.42;40.08;;;;;;;3.03;100.00;101683.50;5017779;28;20285;-48
2022/11/29 05:26:47;;;;;;;60.42;39.90;;;;;;;3.04;100.00;101682.59;5014935;28;20188;-49
2022/11/29 05:29:27;;;;;;;64.03;40.28;;;;;;;3.01;100.00;101674.66;5012293;28;20279;-49
2022/11/29 05:31:58;;;;;;;55.33;38.28;;;;;;;3.03;100.00;101671.13;5012005;28;20185;-46
2022/11/29 05:34:43;;;;;;;57.83;40.53;;;;;;;3.04;100.00;101679.97;5014346;28;20644;-47
2022/11/29 05:37:20;;;;;;;61.13;39.85;;;;;;;3.05;100.00;101681.75;5015977;28;20774;-49
2022/11/29 05:40:24;;;;;;;56.42;40.80;;;;;;;3.04;100.00;101674.66;5013712;28;20239;-45
2022/11/29 05:43:21;;;;;;;61.47;40.75;;;;;;;3.04;100.00;101690.56;4994981;28;20766;-47
2022/11/29 05:46:03;;;;;;;56.67;39.97;;;;;;;3.09;100.00;101686.19;5011416;28;20211;-47
2022/11/29 05:48:45;;;;;;;62.20;41.35;;;;;;;3.07;100.00;101704.72;5014575;28;20208;-48
2022/11/29 05:51:24;;;;;;;60.58;41.47;;;;;;;3.05;100.00;101700.28;5030487;28;20184;-48
2022/11/29 05:54:05;;;;;;;60.88;41.53;;;;;;;3.05;100.00;101702.94;5012672;28;20275;-49
2022/11/29 05:56:45;;;;;;;62.03;41.53;;;;;;;3.05;100.00;101700.28;5024274;28;20192;-46
2022/11/29 05:59:20;;;;;;;58.78;40.45;;;;;;;3.08;100.00;101706.50;5012446;28;20311;-49
2022/11/29 06:01:54;;;;;;;64.80;43.40;;;;;;;3.07;100.00;101711.78;5028318;28;20165;-48
2022/11/29 06:04:58;;;;;;;61.30;42.42;;;;;;;3.08;100.00;101703.84;5012350;28;20181;-47
2022/11/29 06:07:33;;;;;;;62.85;42.15;;;;;;;3.08;100.00;101711.78;5011208;28;20620;-47
2022/11/29 06:10:04;;;;;;;63.08;42.63;;;;;;;3.08;100.00;101719.72;5012424;28;20188;-47
2022/11/29 06:12:34;;;;;;;62.65;42.08;;;;;;;3.08;100.00;101708.22;5014864;28;20188;-47
2022/11/29 06:15:16;;;;;;;66.78;43.95;;;;;;;3.06;100.00;101717.91;5011613;28;20173;-46
2022/11/29 06:18:11;;;;;;;63.38;43.55;;;;;;;3.07;100.00;101714.41;5014990;28;20220;-49
2022/11/29 06:20:40;;;;;;;66.25;43.35;;;;;;;3.11;100.00;101731.22;5011602;28;20181;-46
2022/11/29 06:23:18;;;;;;;64.00;42.72;;;;;;;3.09;100.00;101729.44;5017793;28;20185;-47
2022/11/29 06:26:15;;;;;;;59.00;41.80;;;;;;;3.15;100.00;101739.19;5013333;28;20928;-47
2022/11/29 06:29:08;;;;;;;63.33;42.40;;;;;;;3.14;100.00;101736.53;5011593;28;20239;-48
2022/11/29 06:31:45;;;;;;;62.40;43.45;;;;;;;3.16;100.00;101737.44;5014431;28;20179;-48
2022/11/29 06:34:54;;;;;;;64.63;44.47;;;;;;;3.15;100.00;101733.00;5009748;28;20188;-48
2022/11/29 06:37:28;;;;;;;62.05;42.90;;;;;;;3.10;100.00;101740.91;5014257;28;20192;-47
2022/11/29 06:39:54;;;;;;;66.07;42.00;;;;;;;3.13;100.00;101740.03;5009941;28;20219;-49
2022/11/29 06:42:19;;;;;;;63.33;43.88;;;;;;;3.11;100.00;101752.41;5008929;28;20184;-48
2022/11/29 06:44:46;;;;;;;66.85;44.75;;;;;;;3.11;100.00;101748.00;5010357;28;20180;-48
2022/11/29 06:47:26;;;;;;;69.28;45.47;;;;;;;3.11;100.00;101748.00;5014943;28;20176;-47
2022/11/29 06:50:29;;;;;;;72.25;46.60;;;;;;;3.12;100.00;101749.75;5008773;28;20184;-47
2022/11/29 06:53:42;;;;;;;61.88;41.50;;;;;;;3.11;100.00;101760.34;4997067;28;20205;-47
2022/11/29 06:56:33;;;;;;;67.93;42.55;;;;;;;3.09;100.00;101758.56;5016263;28;20683;-43
2022/11/29 06:59:13;;;;;;;62.30;41.47;;;;;;;3.11;100.00;101768.28;5012065;28;20204;-48
2022/11/29 07:01:57;;;;;;;62.55;41.33;;;;;;;3.08;100.00;101769.13;5009994;28;20183;-48
2022/11/29 07:04:39;;;;;;;66.30;41.05;;;;;;;3.10;100.00;101775.31;5012870;28;20173;-46
2022/11/29 07:07:20;;;;;;;57.85;40.40;;;;;;;3.06;100.00;101773.53;5013746;28;20215;-47
2022/11/29 07:09:49;;;;;;;62.50;41.13;;;;;;;3.09;100.00;101766.50;4997065;28;20216;-46
2022/11/29 07:12:16;;;;;;;62.78;41.47;;;;;;;3.08;100.00;101775.34;5010736;28;20227;-47
2022/11/29 07:14:42;;;;;;;62.47;42.13;;;;;;;3.11;100.00;101782.41;5016605;28;20188;-48
2022/11/29 07:17:44;;;;;;;65.80;41.80;;;;;;;3.09;100.00;101781.50;5014836;28;20226;-48
2022/11/29 07:20:12;;;;;;;55.78;38.72;;;;;;;3.11;100.00;101781.53;5008523;28;20254;-46
2022/11/29 07:22:56;;;;;;;58.88;39.17;;;;;;;3.09;100.00;101781.50;5013048;28;20216;-47
2022/11/29 07:25:50;;;;;;;61.22;39.45;;;;;;;3.04;100.00;101785.84;5011569;28;20674;-47
2022/11/29 07:28:24;;;;;;;56.10;37.75;;;;;;;3.11;100.00;101778.88;5022500;28;20212;-47
2022/11/29 07:31:11;;;;;;;54.95;38.83;;;;;;;3.08;100.00;101795.59;5008962;28;20195;-48
2022/11/29 07:34:06;;;;;;;57.40;38.83;;;;;;;3.08;100.00;101791.22;5023752;28;20188;-47
2022/11/29 07:36:43;;;;;;;55.03;37.00;;;;;;;3.12;100.00;101792.09;5026155;28;20180;-47
2022/11/29 07:39:14;;;;;;;55.58;38.90;;;;;;;3.05;100.00;101798.25;5025783;28;20233;-47
2022/11/29 07:41:55;;;;;;;57.75;39.38;;;;;;;3.07;100.00;101801.78;5020515;28;20226;-47
2022/11/29 07:44:46;;;;;;;60.90;40.13;;;;;;;3.09;100.00;101802.69;5013957;28;20260;-48
2022/11/29 07:47:12;;;;;;;56.88;39.38;;;;;;;3.14;100.00;101808.00;5008609;28;20207;-48
2022/11/29 07:49:37;;;;;;;65.05;40.72;;;;;;;3.13;100.00;101804.50;5011082;28;20199;-48
2022/11/29 07:52:03;;;;;;;59.78;40.28;;;;;;;3.15;100.00;101804.47;5013034;28;20264;-46
2022/11/29 07:54:29;;;;;;;62.75;41.10;;;;;;;3.14;100.00;101810.66;5010022;28;20176;-47
2022/11/29 07:56:54;;;;;;;63.58;42.00;;;;;;;3.12;100.00;101813.28;5010849;28;20297;-48
2022/11/29 07:59:20;;;;;;;63.97;42.20;;;;;;;3.10;100.00;101825.63;5012185;28;20243;-47
2022/11/29 08:01:45;;;;;;;60.28;41.10;;;;;;;3.12;100.00;101810.63;5011155;28;20193;-47
2022/11/29 08:04:11;;;;;;;64.80;42.53;;;;;;;3.14;100.00;101810.66;5012285;28;20183;-47
2022/11/29 08:06:36;;;;;;;64.75;41.92;;;;;;;3.12;100.00;101823.00;5011323;28;20230;-48
2022/11/29 08:09:03;;;;;;;67.75;42.72;;;;;;;3.10;100.00;101817.69;5011618;28;20235;-46
2022/11/29 08:11:29;;;;;;;64.65;42.80;;;;;;;3.12;100.00;101820.34;5008992;28;20184;-45
2022/11/29 08:13:57;;;;;;;69.22;44.58;;;;;;;3.09;100.00;101824.75;5009685;28;20176;-47
2022/11/29 08:16:22;;;;;;;64.10;41.85;;;;;;;3.16;100.00;101824.81;5015355;28;20188;-48
2022/11/29 08:18:48;;;;;;;64.72;42.95;;;;;;;3.12;100.00;101834.47;5011911;28;20201;-47
2022/11/29 08:21:17;;;;;;;66.15;44.47;;;;;;;3.14;100.00;101829.19;5009013;28;20198;-47
2022/11/29 08:23:46;;;;;;;65.07;43.28;;;;;;;3.16;100.00;101828.34;5016681;28;20212;-46
2022/11/29 08:26:12;;;;;;;63.05;42.40;;;;;;;3.25;100.00;101827.53;5009401;28;20177;-47
2022/11/29 08:28:38;;;;;;;64.53;43.28;;;;;;;3.19;100.00;101833.66;5019806;28;20208;-48
2022/11/29 08:31:06;;;;;;;70.43;43.65;;;;;;;3.13;100.00;101830.06;5011326;28;20185;-46
2022/11/29 08:33:35;;;;;;;66.55;43.10;;;;;;;3.10;100.00;101820.34;5015322;28;21006;-46
2022/11/29 08:36:09;;;;;;;67.40;42.97;;;;;;;3.15;100.00;101839.81;5018546;28;20564;-47
2022/11/29 08:38:35;;;;;;;66.38;43.97;;;;;;;3.14;100.00;101823.91;5013769;28;20210;-48
2022/11/29 08:41:06;;;;;;;68.28;43.55;;;;;;;3.08;100.00;101830.03;5013362;28;20181;-48
2022/11/29 08:43:32;;;;;;;74.82;45.00;;;;;;;3.05;100.00;101835.31;5014968;28;20529;-47
2022/11/29 08:45:58;;;;;;;66.40;43.33;;;;;;;3.11;100.00;101843.31;5013402;28;20177;-48
2022/11/29 08:48:23;;;;;;;64.03;43.65;;;;;;;3.10;100.00;101833.56;5030449;28;20308;-48
2022/11/29 08:50:50;;;;;;;67.93;44.38;;;;;;;3.10;100.00;101833.56;5016046;28;20183;-49
2022/11/29 08:56:00;;;;;;;65.57;42.17;;;;;;;3.14;100.00;101835.38;5011051;28;20557;-47
2022/11/29 08:58:26;;;;;;;64.82;42.70;;;;;;;3.12;100.00;101829.19;5012946;28;20224;-47
2022/11/29 09:00:52;;;;;;;69.18;43.00;;;;;;;3.15;100.00;101838.91;5015385;28;20585;-47
2022/11/29 09:06:11;;;;;;;66.25;41.20;;;;;;;3.18;100.00;101836.28;5013729;28;20565;-47
2022/11/29 09:08:36;;;;;;;63.72;42.45;;;;;;;3.16;100.00;101833.63;5020162;28;20213;-48
2022/11/29 09:11:16;;;;;;;66.97;42.35;;;;;;;3.20;100.00;101847.78;5013952;28;20184;-48
2022/11/29 09:13:45;;;;;;;67.70;42.97;;;;;;;3.20;100.00;101845.16;5015918;28;20651;-47
2022/11/29 09:16:13;;;;;;;62.03;41.90;;;;;;;3.25;100.00;101846.06;5019604;28;20216;-47
2022/11/29 09:18:40;;;;;;;63.70;42.65;;;;;;;3.28;100.00;101854.06;5014272;28;20209;-47
2022/11/29 09:21:08;;;;;;;61.55;41.55;;;;;;;3.27;100.00;101846.97;5014346;28;20176;-47
2022/11/29 09:23:34;;;;;;;64.00;41.53;;;;;;;3.27;100.00;101849.59;5018684;28;20195;-47
2022/11/29 09:26:00;;;;;;;62.97;42.75;;;;;;;3.32;100.00;101847.88;5013506;28;20660;-46
2022/11/29 09:28:26;;;;;;;62.53;41.30;;;;;;;3.37;100.00;101855.84;5028459;28;20193;-50
2022/11/29 09:30:52;;;;;;;57.58;39.83;;;;;;;3.36;100.00;101854.09;5014276;28;20199;-48
2022/11/29 09:33:17;;;;;;;64.35;42.55;;;;;;;3.34;100.00;101854.06;5013097;28;20173;-46
2022/11/29 09:35:43;;;;;;;60.17;40.90;;;;;;;3.38;100.00;101857.66;5017060;28;20532;-46
2022/11/29 09:38:12;;;;;;;60.30;41.35;;;;;;;3.41;100.00;101873.56;5013343;28;20284;-45
2022/11/29 09:40:44;;;;;;;56.60;39.80;;;;;;;3.40;100.00;101867.38;5010588;28;20251;-46
2022/11/29 09:43:09;;;;;;;64.88;43.28;;;;;;;3.36;100.00;101857.63;5009620;28;20255;-48
2022/11/29 09:45:41;;;;;;;59.58;40.53;;;;;;;3.37;100.00;101864.72;5011111;28;20711;-47
2022/11/29 09:48:33;;;;;;;61.53;41.78;;;;;;;3.38;100.00;101862.94;5010823;28;20307;-47
2022/11/29 09:51:22;;;;;;;60.67;42.00;;;;;;;3.47;100.00;101866.53;5011472;28;20271;-47
2022/11/29 09:53:59;;;;;;;67.45;43.33;;;;;;;3.43;100.00;101872.72;5011242;28;20187;-48
2022/11/29 09:56:37;;;;;;;63.33;43.13;;;;;;;3.37;100.00;101869.09;5019752;28;20295;-47
2022/11/29 09:59:43;;;;;;;63.42;42.15;;;;;;;3.39;100.00;101881.50;5012307;28;20212;-46
2022/11/29 10:02:27;;;;;;;60.50;41.42;;;;;;;3.48;100.00;101883.34;5010087;28;20576;-47
2022/11/29 10:04:59;;;;;;;66.03;41.90;;;;;;;3.54;100.00;101880.72;5012861;28;20678;-46
2022/11/29 10:07:47;;;;;;;61.88;41.33;;;;;;;3.56;100.00;101886.91;5018291;28;20326;-47
2022/11/29 10:10:29;;;;;;;60.85;42.33;;;;;;;3.49;100.00;101891.28;5018264;28;20204;-48
2022/11/29 10:13:14;;;;;;;61.83;41.20;;;;;;;3.49;100.00;101882.44;5011998;28;20168;-48
2022/11/29 10:15:43;;;;;;;63.03;42.70;;;;;;;3.51;100.00;101889.53;5012958;28;20188;-47
2022/11/29 10:18:37;;;;;;;59.70;40.17;;;;;;;3.54;100.00;101883.38;5013268;28;20258;-48
2022/11/29 10:21:21;;;;;;;62.47;42.22;;;;;;;3.51;100.00;101889.53;5012486;28;20723;-47
2022/11/29 10:24:03;;;;;;;59.92;41.92;;;;;;;3.51;100.00;101883.34;5011701;28;20518;-47
2022/11/29 10:26:29;;;;;;;61.80;41.38;;;;;;;3.55;100.00;101886.94;5011855;28;20188;-47
2022/11/29 10:28:56;;;;;;;62.17;42.40;;;;;;;3.61;100.00;101903.75;5015514;28;20196;-48
2022/11/29 10:31:31;;;;;;;61.25;40.88;;;;;;;3.60;100.00;101896.66;5014228;28;20607;-48
2022/11/29 10:34:00;;;;;;;63.00;42.25;;;;;;;3.53;100.00;101899.28;5014167;28;20668;-45
2022/11/29 10:36:42;;;;;;;58.80;41.65;;;;;;;3.62;100.00;101899.34;5017230;28;20180;-47
2022/11/29 10:39:28;;;;;;;64.60;41.75;;;;;;;3.71;100.00;101902.06;5011629;28;20223;-47
2022/11/29 10:41:58;;;;;;;61.38;40.67;;;;;;;3.64;100.00;101903.78;5009525;28;20189;-46
2022/11/29 10:44:25;;;;;;;61.65;41.80;;;;;;;3.64;100.00;101901.13;5009959;28;20627;-48
2022/11/29 10:46:51;;;;;;;59.08;41.78;;;;;;;3.57;100.00;101901.97;5014244;28;20184;-48
2022/11/29 10:49:20;;;;;;;58.88;39.95;;;;;;;3.64;100.00;101906.41;5000771;28;20252;-48
2022/11/29 10:51:46;;;;;;;60.40;42.63;;;;;;;3.68;100.00;101900.28;5012454;28;20218;-47
2022/11/29 10:54:28;;;;;;;64.75;42.47;;;;;;;3.62;100.00;101902.88;5010470;28;20586;-47
2022/11/29 10:56:57;;;;;;;59.53;41.85;;;;;;;3.66;100.00;101907.31;5010500;28;20203;-47
2022/11/29 10:59:25;;;;;;;58.53;41.60;;;;;;;3.65;100.00;101904.66;5010292;28;20205;-47
2022/11/29 11:01:51;;;;;;;62.22;42.80;;;;;;;3.63;100.00;101901.09;5012387;28;20212;-48
2022/11/29 11:04:28;;;;;;;64.78;43.05;;;;;;;3.65;100.00;101907.31;5014522;28;20318;-48
2022/11/29 11:06:58;;;;;;;62.85;42.03;;;;;;;3.65;100.00;101902.91;5009911;28;20203;-48
2022/11/29 11:09:35;;;;;;;59.95;41.58;;;;;;;3.64;100.00;101897.59;5013822;28;20184;-48
2022/11/29 11:12:25;;;;;;;61.60;42.38;;;;;;;3.67;100.00;101898.50;5012016;28;20187;-48
2022/11/29 11:15:12;;;;;;;60.85;42.90;;;;;;;3.62;100.00;101896.69;5013373;28;20624;-46
2022/11/29 11:17:41;;;;;;;61.13;42.72;;;;;;;3.58;100.00;101901.06;5015110;28;20185;-48
2022/11/29 11:20:20;;;;;;;61.75;42.08;;;;;;;3.62;100.00;101904.63;5015637;28;20261;-49
2022/11/29 11:23:07;;;;;;;68.78;47.13;;;;;;;3.63;100.00;101898.44;5024018;28;20283;-46
2022/11/29 11:25:38;;;;;;;63.85;42.08;;;;;;;3.68;100.00;101902.91;5008866;28;20281;-48
2022/11/29 11:28:21;;;;;;;62.08;44.17;;;;;;;3.65;100.00;101905.56;5017761;28;20283;-48
2022/11/29 11:30:51;;;;;;;61.22;41.30;;;;;;;3.63;100.00;101902.00;5009730;28;20168;-48
2022/11/29 11:33:24;;;;;;;67.30;42.17;;;;;;;3.71;100.00;101899.41;5012828;28;20684;-48
2022/11/29 11:36:18;;;;;;;61.13;43.28;;;;;;;3.74;100.00;101898.53;5018539;28;20180;-46
2022/11/29 11:38:58;;;;;;;61.60;41.75;;;;;;;3.71;100.00;101900.28;5011550;28;20216;-47
2022/11/29 11:42:35;;;;;;;59.85;42.55;;;;;;;3.64;100.00;101900.25;5019167;28;20180;-47
2022/11/29 11:44:33;;;;;;;61.17;41.38;;;;;;;3.65;100.00;101900.25;5012014;28;20231;-47
2022/11/29 11:47:00;;;;;;;61.72;41.92;;;;;;;3.62;100.00;101900.22;5007176;28;20274;-47
2022/11/29 11:49:29;;;;;;;64.82;42.25;;;;;;;3.69;100.00;101902.03;5013998;28;20976;-47
2022/11/29 11:51:57;;;;;;;62.45;42.50;;;;;;;3.61;100.00;101909.06;5010157;28;20177;-48
2022/11/29 11:54:22;;;;;;;60.28;41.85;;;;;;;3.58;100.00;101913.44;5016342;28;20663;-49